createdAt,value
2018-07-27T00:00:13.608Z,57.00
2018-07-27T00:01:45.179Z,56.80
2018-07-27T00:03:16.749Z,57.60
2018-07-27T00:04:48.321Z,54.90
2018-07-27T00:06:19.892Z,55.40
2018-07-27T00:07:51.464Z,56.20
2018-07-27T00:09:23.035Z,54.60
2018-07-27T00:10:54.605Z,57.20
2018-07-27T00:12:26.276Z,58.20
2018-07-27T00:13:57.747Z,55.60
2018-07-27T00:15:29.318Z,56.70
2018-07-27T00:17:00.889Z,56.70
2018-07-27T00:18:32.610Z,55.50
2018-07-27T00:20:04.031Z,54.40
2018-07-27T00:21:35.604Z,60.30
2018-07-27T00:23:07.173Z,51.20
2018-07-27T00:24:38.745Z,53.60
2018-07-27T00:26:10.314Z,51.00
2018-07-27T00:27:41.885Z,46.90
2018-07-27T00:29:13.455Z,51.30
2018-07-27T00:30:45.128Z,53.80
2018-07-27T00:32:16.597Z,52.60
2018-07-27T00:33:48.168Z,54.10
2018-07-27T00:35:19.738Z,49.80
2018-07-27T00:36:51.311Z,53.80
2018-07-27T00:38:22.880Z,57.50
2018-07-27T00:39:54.450Z,56.70
2018-07-27T00:41:26.022Z,51.40
2018-07-27T00:42:57.627Z,52.30
2018-07-27T00:44:29.164Z,52.70
2018-07-27T00:46:00.734Z,52.30
2018-07-27T00:47:32.305Z,55.50
2018-07-27T00:49:03.975Z,54.30
2018-07-27T00:50:35.446Z,54.10
2018-07-27T00:52:07.016Z,52.60
2018-07-27T00:53:38.587Z,55.00
2018-07-27T00:55:10.157Z,55.00
2018-07-27T00:56:41.727Z,55.10
2018-07-27T00:58:13.298Z,54.00
2018-07-27T00:59:44.872Z,56.00
2018-07-27T01:01:16.439Z,55.30
2018-07-27T01:02:48.010Z,54.60
2018-07-27T01:04:19.580Z,56.50
2018-07-27T01:05:51.150Z,56.10
2018-07-27T01:07:22.821Z,55.80
2018-07-27T01:08:54.294Z,56.00
2018-07-27T01:10:25.863Z,55.10
2018-07-27T01:11:57.432Z,53.70
2018-07-27T01:13:29.002Z,57.10
2018-07-27T01:15:00.574Z,61.70
2018-07-27T01:16:32.143Z,62.40
2018-07-27T01:18:03.713Z,56.40
2018-07-27T01:19:35.385Z,60.50
2018-07-27T01:21:06.854Z,60.50
2018-07-27T01:22:38.424Z,60.70
2018-07-27T01:24:09.996Z,57.20
2018-07-27T01:25:41.666Z,58.50
2018-07-27T01:27:13.135Z,58.80
2018-07-27T01:28:44.705Z,62.20
2018-07-27T01:30:16.275Z,63.30
2018-07-27T01:31:47.845Z,65.80
2018-07-27T01:33:19.418Z,70.60
2018-07-27T01:34:50.986Z,65.60
2018-07-27T01:36:22.556Z,68.20
2018-07-27T01:37:54.126Z,61.10
2018-07-27T01:39:25.698Z,61.20
2018-07-27T01:40:57.266Z,63.10
2018-07-27T01:42:28.836Z,61.60
2018-07-27T01:44:00.506Z,61.20
2018-07-27T01:45:31.977Z,64.60
2018-07-27T01:47:03.555Z,61.70
2018-07-27T01:48:35.115Z,63.60
2018-07-27T01:50:06.686Z,62.00
2018-07-27T01:51:38.256Z,58.60
2018-07-27T01:53:09.826Z,61.00
2018-07-27T01:54:41.396Z,59.80
2018-07-27T01:56:12.965Z,60.00
2018-07-27T01:57:44.536Z,57.50
2018-07-27T01:59:16.105Z,57.70
2018-07-27T02:00:47.675Z,56.30
2018-07-27T02:02:19.346Z,52.50
2018-07-27T02:03:50.815Z,57.10
2018-07-27T02:05:22.385Z,56.30
2018-07-27T02:06:53.955Z,59.50
2018-07-27T02:08:25.525Z,56.10
2018-07-27T02:09:57.096Z,57.50
2018-07-27T02:11:28.665Z,57.50
2018-07-27T02:13:00.263Z,61.90
2018-07-27T02:14:31.804Z,62.40
2018-07-27T02:16:03.378Z,67.40
2018-07-27T02:17:34.945Z,66.10
2018-07-27T02:19:06.515Z,64.40
2018-07-27T02:20:38.335Z,65.00
2018-07-27T02:22:09.655Z,65.40
2018-07-27T02:23:41.305Z,71.80
2018-07-27T02:25:12.795Z,66.70
2018-07-27T02:26:44.619Z,59.30
2018-07-27T02:28:15.934Z,59.40
2018-07-27T02:29:47.505Z,61.20
2018-07-27T02:31:19.075Z,59.00
2018-07-27T02:32:50.644Z,65.40
2018-07-27T02:34:22.214Z,68.70
2018-07-27T02:35:53.788Z,72.20
2018-07-27T02:37:25.355Z,64.30
2018-07-27T02:38:57.089Z,61.40
2018-07-27T02:40:28.495Z,62.00
2018-07-27T02:42:00.064Z,64.40
2018-07-27T02:43:31.634Z,63.10
2018-07-27T02:45:03.304Z,63.00
2018-07-27T02:46:34.775Z,66.70
2018-07-27T02:48:06.343Z,64.10
2018-07-27T02:49:37.913Z,67.10
2018-07-27T02:51:09.744Z,67.20
2018-07-27T02:52:41.053Z,67.00
2018-07-27T02:54:12.623Z,70.20
2018-07-27T02:55:44.194Z,69.00
2018-07-27T02:57:15.913Z,67.80
2018-07-27T02:58:47.331Z,68.30
2018-07-27T03:00:18.901Z,67.60
2018-07-27T03:01:50.472Z,72.70
2018-07-27T03:03:22.040Z,77.60
2018-07-27T03:04:53.611Z,73.90
2018-07-27T03:06:25.181Z,74.80
2018-07-27T03:07:56.750Z,68.30
2018-07-27T03:09:28.320Z,69.30
2018-07-27T03:10:59.889Z,65.10
2018-07-27T03:12:31.661Z,75.60
2018-07-27T03:14:03.031Z,73.50
2018-07-27T03:15:34.698Z,67.10
2018-07-27T03:17:06.167Z,80.00
2018-07-27T03:18:37.738Z,79.30
2018-07-27T03:20:09.307Z,75.00
2018-07-27T03:21:41.019Z,72.30
2018-07-27T03:23:12.447Z,73.50
2018-07-27T03:24:44.017Z,66.40
2018-07-27T03:26:15.586Z,66.00
2018-07-27T03:27:47.155Z,65.80
2018-07-27T03:29:18.725Z,65.70
2018-07-27T03:30:50.299Z,68.50
2018-07-27T03:32:21.865Z,70.40
2018-07-27T03:33:53.539Z,65.70
2018-07-27T03:35:25.005Z,67.80
2018-07-27T03:36:56.574Z,72.00
2018-07-27T03:38:28.144Z,71.10
2018-07-27T03:39:59.713Z,69.10
2018-07-27T03:41:31.284Z,69.00
2018-07-27T03:43:02.855Z,68.30
2018-07-27T03:44:34.421Z,76.40
2018-07-27T03:46:05.991Z,76.90
2018-07-27T03:47:37.562Z,71.20
2018-07-27T03:49:09.133Z,68.80
2018-07-27T03:50:40.700Z,71.00
2018-07-27T03:52:12.522Z,70.50
2018-07-27T03:53:43.840Z,73.60
2018-07-27T03:55:15.410Z,73.90
2018-07-27T03:56:46.979Z,68.90
2018-07-27T03:58:18.799Z,77.00
2018-07-27T03:59:50.120Z,75.40
2018-07-27T04:01:21.687Z,72.40
2018-07-27T04:02:53.261Z,74.00
2018-07-27T04:04:24.828Z,73.40
2018-07-27T04:05:56.402Z,70.60
2018-07-27T04:07:28.046Z,70.60
2018-07-27T04:08:59.540Z,74.60
2018-07-27T04:10:31.209Z,71.40
2018-07-27T04:12:02.675Z,73.20
2018-07-27T04:13:34.245Z,74.40
2018-07-27T04:15:05.911Z,74.50
2018-07-27T04:16:37.483Z,69.50
2018-07-27T04:18:08.953Z,69.10
2018-07-27T04:19:40.523Z,72.10
2018-07-27T04:21:12.094Z,69.70
2018-07-27T04:22:43.912Z,70.60
2018-07-27T04:24:15.230Z,66.50
2018-07-27T04:25:46.803Z,71.10
2018-07-27T04:27:18.370Z,72.70
2018-07-27T04:28:50.041Z,69.30
2018-07-27T04:30:21.508Z,66.90
2018-07-27T04:31:53.279Z,72.60
2018-07-27T04:33:24.650Z,68.30
2018-07-27T04:34:56.217Z,77.50
2018-07-27T04:36:27.786Z,69.80
2018-07-27T04:37:59.356Z,71.20
2018-07-27T04:39:30.938Z,68.30
2018-07-27T04:41:02.607Z,69.60
2018-07-27T04:42:34.067Z,70.60
2018-07-27T04:44:05.636Z,74.70
2018-07-27T04:45:37.204Z,79.80
2018-07-27T04:47:08.872Z,77.00
2018-07-27T04:48:40.344Z,92.80
2018-07-27T04:50:11.911Z,82.80
2018-07-27T04:51:43.481Z,94.80
2018-07-27T04:53:15.300Z,75.10
2018-07-27T04:54:46.619Z,71.90
2018-07-27T04:56:18.202Z,75.40
2018-07-27T04:57:49.759Z,71.40
2018-07-27T04:59:21.328Z,86.10
2018-07-27T05:00:52.897Z,80.80
2018-07-27T05:02:24.468Z,75.10
2018-07-27T05:03:56.037Z,79.10
2018-07-27T05:05:27.706Z,80.40
2018-07-27T05:06:59.174Z,81.60
2018-07-27T05:08:30.743Z,93.20
2018-07-27T05:10:02.314Z,79.40
2018-07-27T05:11:33.882Z,87.90
2018-07-27T05:13:05.451Z,88.90
2018-07-27T05:14:37.022Z,94.40
2018-07-27T05:16:08.590Z,91.70
2018-07-27T05:17:40.261Z,94.00
2018-07-27T05:19:11.729Z,84.20
2018-07-27T05:20:43.298Z,91.90
2018-07-27T05:22:14.867Z,88.50
2018-07-27T05:23:46.738Z,80.60
2018-07-27T05:25:18.008Z,85.40
2018-07-27T05:26:49.576Z,86.30
2018-07-27T05:28:21.145Z,90.40
2018-07-27T05:29:52.713Z,93.00
2018-07-27T05:31:24.283Z,80.40
2018-07-27T05:32:55.856Z,84.90
2018-07-27T05:34:27.466Z,76.40
2018-07-27T05:35:58.991Z,80.80
2018-07-27T05:37:30.560Z,75.80
2018-07-27T05:39:02.129Z,78.50
2018-07-27T05:40:33.699Z,71.40
2018-07-27T05:42:05.367Z,76.30
2018-07-27T05:43:36.838Z,72.40
2018-07-27T05:45:08.406Z,71.20
2018-07-27T05:46:39.976Z,73.40
2018-07-27T05:48:11.550Z,78.90
2018-07-27T05:49:43.114Z,74.30
2018-07-27T05:51:14.685Z,82.20
2018-07-27T05:52:46.277Z,73.60
2018-07-27T05:54:18.072Z,80.10
2018-07-27T05:55:49.390Z,81.70
2018-07-27T05:57:20.961Z,81.00
2018-07-27T05:58:52.529Z,76.60
2018-07-27T06:00:24.200Z,84.10
2018-07-27T06:01:55.675Z,79.50
2018-07-27T06:03:27.237Z,80.20
2018-07-27T06:04:58.806Z,72.00
2018-07-27T06:06:30.375Z,80.40
2018-07-27T06:08:01.947Z,76.20
2018-07-27T06:09:33.517Z,76.70
2018-07-27T06:11:05.133Z,79.10
2018-07-27T06:12:36.653Z,77.40
2018-07-27T06:14:08.221Z,81.00
2018-07-27T06:15:39.790Z,71.40
2018-07-27T06:17:11.359Z,75.50
2018-07-27T06:18:43.029Z,83.10
2018-07-27T06:20:14.500Z,73.10
2018-07-27T06:21:46.068Z,75.60
2018-07-27T06:23:17.638Z,69.70
2018-07-27T06:24:49.307Z,69.40
2018-07-27T06:26:20.776Z,67.80
2018-07-27T06:27:52.345Z,62.50
2018-07-27T06:29:23.948Z,65.30
2018-07-27T06:30:55.483Z,58.00
2018-07-27T06:32:27.052Z,56.50
2018-07-27T06:33:58.623Z,55.70
2018-07-27T06:35:30.193Z,51.00
2018-07-27T06:37:01.860Z,50.80
2018-07-27T06:38:33.330Z,47.90
2018-07-27T06:40:04.900Z,47.40
2018-07-27T06:41:36.469Z,48.20
2018-07-27T06:43:08.038Z,46.60
2018-07-27T06:44:39.607Z,49.20
2018-07-27T06:46:11.177Z,46.80
2018-07-27T06:47:42.746Z,48.90
2018-07-27T06:49:14.315Z,48.20
2018-07-27T06:50:45.885Z,48.20
2018-07-27T06:52:17.459Z,46.10
2018-07-27T06:53:49.024Z,44.90
2018-07-27T06:55:20.894Z,41.70
2018-07-27T06:56:52.171Z,39.80
2018-07-27T06:58:23.732Z,40.90
2018-07-27T06:59:55.301Z,42.80
2018-07-27T07:01:26.972Z,50.00
2018-07-27T07:02:58.440Z,75.40
2018-07-27T07:04:30.010Z,58.00
2018-07-27T07:06:01.580Z,65.10
2018-07-27T07:07:33.148Z,100.50
2018-07-27T07:09:04.728Z,86.70
2018-07-27T07:10:36.287Z,80.80
2018-07-27T07:12:07.857Z,65.70
2018-07-27T07:13:39.536Z,66.40
2018-07-27T07:15:10.995Z,60.20
2018-07-27T07:16:42.565Z,42.40
2018-07-27T07:18:14.134Z,42.10
2018-07-27T07:19:45.804Z,45.70
2018-07-27T07:21:17.275Z,39.10
2018-07-27T07:22:48.842Z,37.10
2018-07-27T07:24:20.411Z,41.60
2018-07-27T07:25:52.329Z,39.90
2018-07-27T07:27:23.550Z,37.90
2018-07-27T07:28:55.120Z,38.60
2018-07-27T07:30:26.693Z,37.90
2018-07-27T07:31:58.359Z,38.40
2018-07-27T07:33:29.827Z,37.00
2018-07-27T07:35:01.398Z,39.30
2018-07-27T07:36:32.966Z,37.20
2018-07-27T07:38:04.535Z,40.50
2018-07-27T07:39:36.108Z,41.80
2018-07-27T07:41:07.674Z,39.10
2018-07-27T07:42:39.247Z,34.10
2018-07-27T07:44:10.812Z,40.00
2018-07-27T07:45:42.382Z,36.40
2018-07-27T07:47:13.952Z,35.40
2018-07-27T07:48:45.522Z,38.60
2018-07-27T07:50:17.241Z,36.80
2018-07-27T07:51:48.659Z,35.70
2018-07-27T07:53:20.229Z,34.90
2018-07-27T07:54:51.799Z,33.40
2018-07-27T07:56:23.467Z,33.90
2018-07-27T07:57:54.937Z,34.20
2018-07-27T07:59:26.506Z,33.80
2018-07-27T08:00:58.075Z,32.30
2018-07-27T08:02:29.644Z,34.70
2018-07-27T08:04:01.213Z,33.70
2018-07-27T08:05:32.787Z,32.30
2018-07-27T08:07:04.352Z,33.30
2018-07-27T08:08:36.075Z,31.50
2018-07-27T08:10:07.491Z,32.90
2018-07-27T08:11:39.059Z,34.60
2018-07-27T08:13:10.629Z,34.30
2018-07-27T08:14:42.198Z,33.40
2018-07-27T08:16:13.768Z,34.20
2018-07-27T08:17:45.339Z,35.60
2018-07-27T08:19:16.906Z,33.90
2018-07-27T08:20:48.479Z,32.60
2018-07-27T08:22:20.045Z,33.00
2018-07-27T08:23:51.614Z,32.90
2018-07-27T08:25:23.183Z,31.10
2018-07-27T08:26:54.852Z,31.70
2018-07-27T08:28:26.322Z,30.80
2018-07-27T08:29:57.891Z,32.70
2018-07-27T08:31:29.461Z,31.80
2018-07-27T08:33:01.030Z,31.20
2018-07-27T08:34:32.599Z,32.80
2018-07-27T08:36:04.168Z,30.60
2018-07-27T08:37:35.738Z,31.70
2018-07-27T08:39:07.307Z,32.30
2018-07-27T08:40:38.875Z,31.60
2018-07-27T08:42:10.445Z,31.00
2018-07-27T08:43:42.016Z,29.80
2018-07-27T08:45:13.683Z,30.70
2018-07-27T08:46:45.153Z,31.80
2018-07-27T08:48:16.722Z,30.80
2018-07-27T08:49:48.291Z,34.20
2018-07-27T08:51:19.962Z,31.60
2018-07-27T08:52:51.433Z,33.80
2018-07-27T08:54:22.999Z,36.70
2018-07-27T08:55:54.569Z,34.60
2018-07-27T08:57:26.140Z,35.60
2018-07-27T08:58:57.708Z,35.00
2018-07-27T09:00:29.277Z,34.40
2018-07-27T09:02:00.847Z,33.40
2018-07-27T09:03:32.516Z,34.80
2018-07-27T09:05:03.986Z,32.80
2018-07-27T09:06:35.559Z,32.80
2018-07-27T09:08:07.124Z,31.80
2018-07-27T09:09:38.693Z,31.60
2018-07-27T09:11:10.263Z,31.20
2018-07-27T09:12:41.831Z,30.40
2018-07-27T09:14:13.855Z,30.80
2018-07-27T09:15:45.070Z,29.50
2018-07-27T09:17:16.548Z,32.00
2018-07-27T09:18:48.109Z,30.70
2018-07-27T09:20:19.677Z,30.10
2018-07-27T09:21:51.347Z,30.20
2018-07-27T09:23:22.816Z,31.10
2018-07-27T09:24:54.653Z,30.50
2018-07-27T09:26:25.954Z,29.80
2018-07-27T09:27:57.779Z,31.00
2018-07-27T09:29:29.093Z,30.30
2018-07-27T09:31:00.663Z,30.20
2018-07-27T09:32:32.236Z,31.60
2018-07-27T09:34:03.920Z,31.60
2018-07-27T09:35:35.488Z,32.10
2018-07-27T09:37:06.939Z,31.20
2018-07-27T09:38:38.508Z,31.60
2018-07-27T09:40:10.179Z,33.70
2018-07-27T09:41:41.680Z,33.40
2018-07-27T09:43:13.217Z,34.10
2018-07-27T09:44:44.786Z,35.60
2018-07-27T09:46:16.356Z,33.10
2018-07-27T09:47:47.926Z,31.80
2018-07-27T09:49:19.495Z,34.00
2018-07-27T09:50:51.063Z,31.60
2018-07-27T09:52:22.733Z,34.80
2018-07-27T09:53:54.314Z,35.40
2018-07-27T09:55:25.772Z,35.90
2018-07-27T09:56:57.341Z,35.40
2018-07-27T09:58:29.011Z,33.10
2018-07-27T10:00:00.482Z,30.40
2018-07-27T10:01:32.051Z,32.40
2018-07-27T10:03:03.619Z,31.90
2018-07-27T10:04:35.190Z,32.50
2018-07-27T10:06:06.766Z,31.50
2018-07-27T10:07:38.332Z,31.90
2018-07-27T10:09:09.901Z,29.40
2018-07-27T10:10:41.470Z,30.30
2018-07-27T10:12:13.039Z,30.20
2018-07-27T10:15:16.181Z,29.70
2018-07-27T10:16:47.856Z,30.00
2018-07-27T10:18:19.320Z,29.80
2018-07-27T10:19:50.891Z,28.50
2018-07-27T10:21:22.474Z,29.10
2018-07-27T10:22:54.134Z,27.60
2018-07-27T10:24:25.605Z,28.00
2018-07-27T10:25:57.181Z,29.60
2018-07-27T10:27:29.052Z,28.10
2018-07-27T10:29:06.588Z,29.90
2018-07-27T10:30:31.892Z,30.00
2018-07-27T10:32:03.464Z,29.40
2018-07-27T10:33:35.036Z,30.10
2018-07-27T10:36:38.281Z,27.60
2018-07-27T10:38:09.755Z,27.80
2018-07-27T10:39:41.327Z,25.50
2018-07-27T10:41:12.900Z,24.10
2018-07-27T10:42:44.474Z,25.40
2018-07-27T10:45:48.147Z,26.30
2018-07-27T10:47:19.194Z,26.10
2018-07-27T10:48:50.769Z,28.40
2018-07-27T10:50:22.467Z,27.40
2018-07-27T10:51:54.166Z,27.80
2018-07-27T10:54:57.172Z,27.00
2018-07-27T10:58:00.217Z,25.70
2018-07-27T10:59:31.822Z,24.50
2018-07-27T11:01:03.569Z,23.00
2018-07-27T11:02:34.939Z,22.50
2018-07-27T11:04:06.719Z,21.90
2018-07-27T11:05:38.090Z,22.00
2018-07-27T11:07:09.665Z,21.70
2018-07-27T11:08:41.257Z,23.10
2018-07-27T11:10:12.838Z,21.30
2018-07-27T11:11:44.411Z,22.20
2018-07-27T11:13:16.070Z,21.40
2018-07-27T11:14:47.545Z,21.00
2018-07-27T11:16:19.201Z,21.30
2018-07-27T11:19:22.576Z,20.80
2018-07-27T11:20:53.849Z,20.90
2018-07-27T11:22:25.425Z,21.20
2018-07-27T11:23:57.002Z,18.90
2018-07-27T11:27:00.686Z,18.30
2018-07-27T11:28:31.733Z,18.80
2018-07-27T11:30:04.240Z,18.50
2018-07-27T11:34:38.345Z,18.90
2018-07-27T11:36:09.616Z,18.70
2018-07-27T11:37:41.193Z,18.80
2018-07-27T11:39:12.973Z,18.20
2018-07-27T11:42:15.952Z,17.20
2018-07-27T11:45:19.283Z,17.30
2018-07-27T11:46:50.861Z,16.20
2018-07-27T11:49:53.930Z,16.00
2018-07-27T11:51:25.390Z,16.90
2018-07-27T11:52:57.519Z,16.70
2018-07-27T11:54:28.547Z,17.20
2018-07-27T11:56:00.226Z,17.50
2018-07-27T11:57:31.705Z,16.00
2018-07-27T11:59:03.286Z,16.30
2018-07-27T12:00:34.863Z,16.90
2018-07-27T12:03:38.019Z,16.80
2018-07-27T12:05:09.599Z,16.80
2018-07-27T12:06:41.190Z,16.10
2018-07-27T12:08:12.769Z,16.00
2018-07-27T12:09:44.437Z,15.60
2018-07-27T12:11:16.011Z,16.50
2018-07-27T12:12:47.799Z,15.60
2018-07-27T12:15:51.011Z,16.10
2018-07-27T12:17:22.238Z,15.70
2018-07-27T12:18:53.815Z,15.10
2018-07-27T12:20:25.443Z,16.40
2018-07-27T12:21:57.053Z,16.40
2018-07-27T12:23:28.564Z,18.00
2018-07-27T12:25:00.135Z,17.20
2018-07-27T12:26:31.916Z,16.50
2018-07-27T12:28:03.596Z,18.60
2018-07-27T12:29:34.874Z,17.30
2018-07-27T12:31:06.453Z,17.40
2018-07-27T12:32:38.050Z,17.40
2018-07-27T12:34:09.615Z,17.70
2018-07-27T12:35:41.195Z,16.60
2018-07-27T12:37:12.777Z,16.50
2018-07-27T12:38:44.884Z,14.70
2018-07-27T12:40:16.245Z,13.60
2018-07-27T12:41:47.521Z,15.20
2018-07-27T12:43:19.301Z,13.40
2018-07-27T12:44:50.682Z,13.10
2018-07-27T12:46:22.565Z,13.80
2018-07-27T12:47:53.844Z,12.50
2018-07-27T12:49:25.426Z,12.30
2018-07-27T12:52:28.586Z,13.10
2018-07-27T12:54:00.167Z,12.90
2018-07-27T12:55:31.746Z,13.00
2018-07-27T12:57:03.329Z,13.20
2018-07-27T12:58:35.011Z,12.60
2018-07-27T13:00:06.557Z,14.00
2018-07-27T13:01:38.073Z,14.00
2018-07-27T13:03:10.202Z,13.10
2018-07-27T13:04:41.340Z,13.20
2018-07-27T13:06:12.852Z,11.50
2018-07-27T13:07:44.908Z,11.20
2018-07-27T13:10:47.642Z,12.20
2018-07-27T13:12:19.146Z,12.10
2018-07-27T13:13:50.727Z,12.30
2018-07-27T13:15:22.311Z,12.70
2018-07-27T13:18:25.476Z,13.00
2018-07-27T13:19:57.258Z,12.10
2018-07-27T13:21:28.977Z,11.30
2018-07-27T13:23:00.226Z,11.00
2018-07-27T13:24:58.361Z,11.40
2018-07-27T13:27:35.005Z,11.10
2018-07-27T13:29:06.555Z,11.50
2018-07-27T13:30:38.332Z,12.30
2018-07-27T13:32:09.774Z,12.80
2018-07-27T13:36:44.458Z,11.10
2018-07-27T13:38:16.066Z,13.10
2018-07-27T13:39:47.721Z,11.70
2018-07-27T13:44:22.477Z,13.80
2018-07-27T13:45:54.913Z,12.80
2018-07-27T13:50:28.886Z,11.90
2018-07-27T13:55:03.454Z,9.40
2018-07-27T13:56:35.338Z,11.20
2018-07-27T13:58:06.618Z,10.80
2018-07-27T13:59:38.230Z,11.80
2018-07-27T14:01:09.786Z,12.40
2018-07-27T14:04:13.354Z,11.30
2018-07-27T14:05:44.838Z,11.40
2018-07-27T14:07:16.453Z,11.10
2018-07-27T14:08:47.702Z,12.40
2018-07-27T14:10:19.283Z,12.40
2018-07-27T14:11:50.866Z,11.90
2018-07-27T14:14:54.034Z,13.60
2018-07-27T14:16:25.632Z,13.10
2018-07-27T14:21:00.418Z,13.40
2018-07-27T14:22:32.536Z,13.90
2018-07-27T14:24:03.534Z,13.80
2018-07-27T14:27:06.909Z,16.20
2018-07-27T14:28:38.285Z,15.00
2018-07-27T14:30:10.073Z,15.20
2018-07-27T14:33:13.053Z,15.20
2018-07-27T14:34:44.823Z,15.40
2018-07-27T14:36:16.509Z,15.40
2018-07-27T14:37:47.788Z,15.40
2018-07-27T14:39:19.576Z,16.00
2018-07-27T14:40:51.085Z,16.80
2018-07-27T14:42:22.540Z,17.40
2018-07-27T14:43:54.123Z,16.20
2018-07-27T14:45:26.437Z,17.90
2018-07-27T14:46:57.496Z,15.90
2018-07-27T14:48:28.878Z,16.60
2018-07-27T14:51:32.246Z,16.40
2018-07-27T14:53:03.931Z,15.70
2018-07-27T14:54:35.212Z,15.20
2018-07-27T14:56:07.002Z,17.20
2018-07-27T14:57:38.380Z,15.50
2018-07-27T14:59:10.064Z,16.60
2018-07-27T15:00:41.549Z,15.30
2018-07-27T15:02:13.133Z,16.20
2018-07-27T15:03:45.225Z,18.10
2018-07-27T15:05:16.879Z,19.10
2018-07-27T15:06:47.897Z,16.60
2018-07-27T15:08:19.996Z,16.30
2018-07-27T15:09:51.055Z,15.30
2018-07-27T15:11:22.639Z,15.50
2018-07-27T15:12:54.258Z,15.00
2018-07-27T15:14:25.808Z,15.80
2018-07-27T15:15:57.595Z,13.00
2018-07-27T15:17:29.126Z,12.90
2018-07-27T15:19:00.561Z,11.60
2018-07-27T15:20:32.165Z,11.90
2018-07-27T15:22:04.677Z,11.20
2018-07-27T15:23:35.469Z,10.20
2018-07-27T15:25:06.898Z,9.30
2018-07-27T15:26:38.483Z,7.60
2018-07-27T15:28:10.069Z,8.50
2018-07-27T15:29:41.958Z,8.80
2018-07-27T15:31:13.251Z,9.00
2018-07-27T15:32:44.826Z,7.90
2018-07-27T15:34:16.470Z,7.40
2018-07-27T15:37:19.880Z,7.20
2018-07-27T15:38:51.465Z,8.30
2018-07-27T15:40:22.800Z,7.40
2018-07-27T15:41:54.636Z,7.50
2018-07-27T15:43:25.916Z,8.00
2018-07-27T15:44:58.027Z,8.80
2018-07-27T15:46:29.084Z,8.80
2018-07-27T15:51:03.841Z,7.70
2018-07-27T15:52:35.425Z,7.00
2018-07-27T15:54:07.313Z,6.90
2018-07-27T15:55:38.648Z,7.50
2018-07-27T15:57:10.859Z,7.20
2018-07-27T15:58:41.765Z,7.20
2018-07-27T16:00:13.355Z,6.90
2018-07-27T16:01:44.938Z,7.70
2018-07-27T16:03:16.723Z,7.10
2018-07-27T16:04:48.107Z,8.30
2018-07-27T16:07:51.275Z,9.00
2018-07-27T16:13:57.733Z,7.90
2018-07-27T16:17:01.392Z,7.00
2018-07-27T16:18:32.726Z,7.20
2018-07-27T16:20:04.008Z,6.80
2018-07-27T16:23:07.403Z,7.20
2018-07-27T16:24:38.924Z,7.40
2018-07-27T16:26:10.349Z,7.00
2018-07-27T16:27:41.882Z,6.40
2018-07-27T16:29:13.468Z,6.60
2018-07-27T16:30:45.257Z,7.00
2018-07-27T16:32:17.899Z,7.70
2018-07-27T16:33:48.359Z,7.90
2018-07-27T16:35:19.812Z,7.50
2018-07-27T16:36:51.395Z,8.10
2018-07-27T16:38:23.186Z,8.50
2018-07-27T16:39:54.870Z,8.60
2018-07-27T16:41:26.677Z,8.00
2018-07-27T16:42:57.735Z,8.10
2018-07-27T16:44:29.320Z,9.40
2018-07-27T16:46:00.906Z,10.40
2018-07-27T16:50:36.964Z,8.80
2018-07-27T16:52:07.245Z,9.30
2018-07-27T16:55:10.415Z,8.00
2018-07-27T16:56:42.933Z,8.50
2018-07-27T16:58:13.788Z,7.60
2018-07-27T16:59:45.203Z,7.40
2018-07-27T17:02:48.344Z,6.40
2018-07-27T17:04:19.929Z,6.40
2018-07-27T17:05:51.516Z,7.00
2018-07-27T17:07:23.101Z,6.40
2018-07-27T17:08:55.092Z,7.40
2018-07-27T17:10:26.279Z,7.90
2018-07-27T17:11:57.873Z,9.10
2018-07-27T17:13:29.516Z,7.70
2018-07-27T17:15:01.556Z,8.50
2018-07-27T17:18:04.200Z,7.20
2018-07-27T17:19:36.008Z,6.90
2018-07-27T17:21:07.371Z,6.30
2018-07-27T17:22:39.211Z,7.00
2018-07-27T17:24:10.745Z,7.40
2018-07-27T17:27:13.812Z,5.60
2018-07-27T17:28:45.297Z,6.30
2018-07-27T17:30:16.883Z,6.20
2018-07-27T17:31:48.468Z,6.50
2018-07-27T17:33:20.056Z,6.20
2018-07-27T17:34:51.638Z,6.10
2018-07-27T17:37:54.859Z,6.80
2018-07-27T17:39:26.392Z,6.60
2018-07-27T17:40:57.977Z,6.40
2018-07-27T17:42:29.562Z,6.70
2018-07-27T17:44:01.147Z,6.50
2018-07-27T17:45:33.137Z,6.20
2018-07-27T17:47:04.316Z,5.80
2018-07-27T17:48:35.908Z,6.20
2018-07-27T17:50:07.493Z,5.80
2018-07-27T17:51:39.480Z,5.50
2018-07-27T17:53:10.860Z,5.90
2018-07-27T17:54:42.240Z,5.50
2018-07-27T17:56:13.825Z,5.50
2018-07-27T17:57:45.920Z,5.60
2018-07-27T17:59:16.994Z,6.20
2018-07-27T18:00:48.886Z,6.10
2018-07-27T18:02:20.690Z,6.80
2018-07-27T18:03:51.898Z,5.90
2018-07-27T18:05:23.685Z,6.00
2018-07-27T18:06:54.975Z,5.60
2018-07-27T18:09:58.610Z,6.10
2018-07-27T18:11:29.970Z,6.00
2018-07-27T18:13:01.254Z,6.00
2018-07-27T18:16:04.413Z,6.00
2018-07-27T18:17:35.995Z,6.20
2018-07-27T18:23:42.996Z,6.40
2018-07-27T18:25:14.279Z,6.10
2018-07-27T18:26:45.687Z,7.30
2018-07-27T18:31:20.755Z,6.50
2018-07-27T18:32:51.808Z,6.40
2018-07-27T18:35:55.174Z,6.00
2018-07-27T18:37:26.854Z,5.90
2018-07-27T18:38:58.132Z,6.40
2018-07-27T18:42:01.721Z,5.80
2018-07-27T18:43:33.506Z,5.70
2018-07-27T18:45:04.458Z,6.50
2018-07-27T18:46:36.044Z,6.00
2018-07-27T18:49:39.202Z,6.70
2018-07-27T18:51:10.781Z,6.20
2018-07-27T18:52:42.364Z,6.70
2018-07-27T18:54:13.944Z,6.60
2018-07-27T18:55:45.826Z,6.20
2018-07-27T18:57:17.106Z,6.40
2018-07-27T18:58:48.685Z,6.00
2018-07-27T19:00:20.270Z,6.60
2018-07-27T19:03:23.531Z,7.10
2018-07-27T19:04:55.009Z,7.30
2018-07-27T19:06:26.589Z,6.80
2018-07-27T19:07:58.697Z,6.30
2018-07-27T19:09:29.954Z,6.00
2018-07-27T19:11:01.335Z,6.50
2018-07-27T19:12:32.913Z,7.70
2018-07-27T19:14:04.494Z,6.00
2018-07-27T19:15:36.078Z,7.00
2018-07-27T19:18:39.239Z,6.80
2018-07-27T19:20:10.821Z,6.50
2018-07-27T19:21:42.516Z,7.00
2018-07-27T19:23:14.026Z,6.80
2018-07-27T19:24:45.768Z,6.60
2018-07-27T19:26:17.147Z,6.40
2018-07-27T19:27:48.729Z,6.90
2018-07-27T19:29:20.355Z,6.80
2018-07-27T19:30:51.922Z,6.90
2018-07-27T19:32:23.475Z,6.70
2018-07-27T19:33:55.056Z,6.50
2018-07-27T19:35:26.644Z,6.90
2018-07-27T19:36:58.223Z,7.10
2018-07-27T19:38:29.799Z,6.80
2018-07-27T19:40:01.987Z,6.60
2018-07-27T19:41:32.961Z,7.30
2018-07-27T19:43:04.542Z,7.10
2018-07-27T19:44:36.123Z,6.40
2018-07-27T19:46:07.709Z,7.70
2018-07-27T19:47:39.285Z,6.70
2018-07-27T19:49:10.882Z,5.80
2018-07-27T19:50:42.447Z,6.10
2018-07-27T19:52:14.331Z,6.60
2018-07-27T19:53:45.607Z,6.40
2018-07-27T19:55:17.718Z,7.30
2018-07-27T19:56:48.772Z,7.00
2018-07-27T19:58:20.449Z,8.10
2018-07-27T19:59:51.942Z,7.90
2018-07-27T20:02:55.091Z,6.60
2018-07-27T20:05:58.251Z,6.10
2018-07-27T20:07:29.832Z,7.10
2018-07-27T20:10:32.996Z,7.70
2018-07-27T20:12:04.574Z,7.70
2018-07-27T20:13:36.149Z,7.70
2018-07-27T20:16:39.613Z,7.90
2018-07-27T20:18:11.940Z,6.90
2018-07-27T20:19:42.468Z,10.10
2018-07-27T20:21:14.049Z,10.20
2018-07-27T20:22:45.826Z,9.50
2018-07-27T20:24:17.204Z,9.20
2018-07-27T20:25:48.781Z,10.60
2018-07-27T20:27:21.499Z,9.80
2018-07-27T20:28:51.938Z,10.10
2018-07-27T20:30:23.517Z,11.50
2018-07-27T20:31:55.095Z,12.40
2018-07-27T20:33:26.673Z,10.30
2018-07-27T20:34:58.294Z,11.20
2018-07-27T20:36:29.926Z,10.80
2018-07-27T20:39:32.980Z,10.60
2018-07-27T20:41:04.558Z,10.60
2018-07-27T20:42:36.134Z,10.30
2018-07-27T20:44:07.711Z,11.80
2018-07-27T20:45:39.288Z,11.50
2018-07-27T20:47:10.869Z,11.00
2018-07-27T20:48:42.441Z,10.50
2018-07-27T20:50:14.016Z,11.10
2018-07-27T20:51:45.592Z,13.60
2018-07-27T20:53:17.169Z,11.40
2018-07-27T20:54:48.843Z,13.40
2018-07-27T20:56:20.319Z,13.30
2018-07-27T20:57:51.894Z,11.50
2018-07-27T20:59:23.468Z,12.40
2018-07-27T21:00:55.144Z,11.70
2018-07-27T21:02:26.618Z,13.00
2018-07-27T21:03:58.235Z,13.30
2018-07-27T21:05:29.768Z,12.30
2018-07-27T21:07:01.347Z,11.60
2018-07-27T21:08:32.919Z,13.10
2018-07-27T21:10:04.494Z,11.80
2018-07-27T21:11:36.068Z,13.00
2018-07-27T21:13:07.746Z,12.70
2018-07-27T21:14:39.221Z,12.60
2018-07-27T21:16:10.839Z,12.70
2018-07-27T21:17:42.374Z,13.80
2018-07-27T21:19:13.943Z,13.30
2018-07-27T21:20:45.524Z,14.60
2018-07-27T21:22:17.093Z,12.60
2018-07-27T21:23:48.667Z,13.80
2018-07-27T21:25:20.240Z,13.20
2018-07-27T21:26:51.816Z,14.00